KLNS

Lancaster Airport

Airport
ICAO code
KLNS
IATA Code
LNS
Summary
ICAO Region
NAM
ICAO Territory
Location

Lititz, Pennsylvania

Serving
Lancaster
Elevation
403 ft
Coordinates
40° 7' 23" N , 76° 17' 29" W
KCC
Airport WX
Cumulonimbus
Metar
KLNS 201853Z 19006KT 10SM SCT043 SCT075 28/19 A3007 RMK AO2 SLP180 T02830189

Lancaster Airport is a public use airport located 4 nm north of the central business district of Lancaster, a city in Lancaster County, Pennsylvania, USA.

Runways

Designator Length Width Surface Rops
13/31 1250 30 ASP Yes/Yes
8/26 2113 46 ASP Yes/Yes

Airport map

Aerial View

SKYbrary Partners:

Safety knowledge contributed by: